Mount Zion, Indiana
Current Conditions -  °F | °C
As of 2:35 AM on Saturday 27 Dec 2014 (Local Time) from KHHG Reporting Station
Overcast Overcast  
Wind Chill: 41°   Ceiling: 4800
Heat Index: 46°   Visibility: 10mi
Dew Point: 40°   Wind: 9mph
Humidity: 80%   Direction: 210°SSW
Pressure: 30.12"   Gusts: NA
Location:  40.6897°N, 85.3916°W
Report Text: KHHG 270735Z AUTO 21008KT 10SM SCT027 OVC048 08/05 A3012 RMK AO2 T00770045
Loading
Personal Weather Stations






























Interactive Weather Map New forecast layout! Learn more

10-Day Weather Forecast

Advertisements
Track Severe Weather on mobile